createdAt,value
2018-06-12T00:01:12.715Z,2.70
2018-06-12T00:03:44.767Z,1.93
2018-06-12T00:06:16.795Z,2.20
2018-06-12T00:08:48.834Z,2.50
2018-06-12T00:11:20.875Z,3.33
2018-06-12T00:25:36.755Z,3.20
2018-06-12T00:28:08.744Z,3.30
2018-06-12T00:30:40.711Z,3.43
2018-06-12T00:33:12.706Z,3.20
2018-06-12T00:35:44.704Z,2.80
2018-06-12T00:38:16.701Z,3.40
2018-06-12T00:40:48.739Z,3.60
2018-06-12T00:43:20.799Z,4.17
2018-06-12T00:45:52.777Z,4.10
2018-06-12T00:48:24.787Z,3.57
2018-06-12T00:50:56.849Z,4.17
2018-06-12T00:53:28.829Z,5.13
2018-06-12T00:56:00.832Z,4.00
2018-06-12T00:58:32.877Z,4.00
2018-06-12T01:01:04.872Z,3.63
2018-06-12T01:03:36.864Z,4.03
2018-06-12T01:06:08.850Z,4.00
2018-06-12T01:08:40.863Z,3.80
2018-06-12T01:11:12.896Z,4.20
2018-06-12T01:13:45.006Z,5.10
2018-06-12T01:16:17.010Z,2.87
2018-06-12T01:18:49.016Z,4.43
2018-06-12T01:21:21.015Z,3.57
2018-06-12T01:23:53.079Z,4.93
2018-06-12T01:26:25.082Z,3.90
2018-06-12T01:28:57.136Z,3.17
2018-06-12T01:31:29.133Z,4.07
2018-06-12T01:34:01.139Z,3.60
2018-06-12T01:36:33.139Z,4.13
2018-06-12T01:39:06.864Z,2.70
2018-06-12T01:41:38.863Z,4.03
2018-06-12T01:44:10.954Z,4.63
2018-06-12T01:46:42.939Z,3.23
2018-06-12T01:49:14.942Z,4.13
2018-06-12T01:51:46.947Z,3.70
2018-06-12T01:54:18.995Z,4.63
2018-06-12T01:56:51.032Z,4.40
2018-06-12T01:59:23.080Z,5.87
2018-06-12T02:01:55.086Z,5.13
2018-06-12T02:04:27.078Z,4.23
2018-06-12T02:06:59.136Z,5.40
2018-06-12T02:09:31.162Z,4.87
2018-06-12T02:12:03.205Z,5.37
2018-06-12T02:14:35.233Z,4.03
2018-06-12T02:17:07.231Z,5.20
2018-06-12T02:19:39.280Z,4.00
2018-06-12T02:22:11.398Z,4.50
2018-06-12T02:24:43.389Z,4.17
2018-06-12T02:27:15.420Z,4.93
2018-06-12T02:29:47.427Z,5.50
2018-06-12T02:32:19.778Z,5.17
2018-06-12T02:34:51.866Z,4.67
2018-06-12T02:37:23.873Z,4.43
2018-06-12T02:39:55.899Z,5.43
2018-06-12T02:42:27.938Z,5.03
2018-06-12T02:44:59.930Z,4.80
2018-06-12T02:47:32.009Z,4.40
2018-06-12T02:50:04.092Z,4.20
2018-06-12T02:52:36.133Z,5.53
2018-06-12T02:55:08.151Z,4.10
2018-06-12T02:57:40.145Z,4.77
2018-06-12T03:00:12.188Z,3.97
2018-06-12T03:02:44.195Z,4.30
2018-06-12T03:05:16.263Z,4.57
2018-06-12T03:07:48.304Z,5.13
2018-06-12T03:10:20.298Z,4.17
2018-06-12T03:12:52.349Z,4.77
2018-06-12T03:15:24.362Z,4.67
2018-06-12T03:17:56.467Z,4.50
2018-06-12T03:20:40.052Z,4.10
2018-06-12T03:23:12.151Z,3.80
2018-06-12T03:25:48.774Z,4.17
2018-06-12T03:28:20.794Z,4.40
2018-06-12T03:30:52.935Z,5.13
2018-06-12T03:33:24.941Z,4.93
2018-06-12T03:35:56.966Z,6.97
2018-06-12T03:38:29.031Z,4.57
2018-06-12T03:41:01.080Z,5.40
2018-06-12T03:43:33.277Z,5.10
2018-06-12T03:46:05.284Z,6.17
2018-06-12T03:48:37.324Z,3.93
2018-06-12T03:51:09.355Z,5.23
2018-06-12T03:53:41.342Z,5.27
2018-06-12T03:56:13.409Z,5.30
2018-06-12T03:58:45.403Z,5.60
2018-06-12T04:01:17.403Z,8.10
2018-06-12T04:03:49.379Z,5.67
2018-06-12T04:06:21.393Z,5.53
2018-06-12T04:08:53.455Z,5.73
2018-06-12T04:11:25.469Z,5.20
2018-06-12T04:13:57.473Z,5.07
2018-06-12T04:16:29.470Z,5.87
2018-06-12T04:19:01.481Z,5.80
2018-06-12T04:21:34.015Z,5.77
2018-06-12T04:24:06.004Z,5.37
2018-06-12T04:26:38.006Z,7.03
2018-06-12T04:29:10.063Z,5.20
2018-06-12T04:31:42.071Z,6.23
2018-06-12T04:34:14.135Z,5.47
2018-06-12T04:36:46.119Z,5.57
2018-06-12T04:39:18.104Z,5.77
2018-06-12T04:41:50.106Z,6.20
2018-06-12T04:44:22.087Z,5.80
2018-06-12T04:46:54.146Z,5.77
2018-06-12T04:49:26.124Z,5.20
2018-06-12T04:51:58.101Z,5.53
2018-06-12T04:54:30.219Z,5.17
2018-06-12T04:57:02.244Z,5.90
2018-06-12T04:59:34.261Z,5.30
2018-06-12T05:02:06.393Z,5.50
2018-06-12T05:04:38.376Z,4.67
2018-06-12T05:07:10.363Z,5.23
2018-06-12T05:09:42.459Z,6.53
2018-06-12T05:12:14.547Z,5.03
2018-06-12T05:14:46.535Z,4.93
2018-06-12T05:17:18.567Z,6.97
2018-06-12T05:19:50.545Z,6.40
2018-06-12T05:22:22.564Z,5.80
2018-06-12T05:24:54.639Z,5.50
2018-06-12T05:27:26.629Z,5.83
2018-06-12T05:29:58.691Z,6.10
2018-06-12T05:32:30.704Z,5.20
2018-06-12T05:35:02.735Z,5.07
2018-06-12T05:37:34.762Z,5.57
2018-06-12T05:40:06.754Z,5.97
2018-06-12T05:42:40.886Z,9.03
2018-06-12T05:45:13.170Z,5.57
2018-06-12T05:47:45.170Z,8.13
2018-06-12T05:50:17.202Z,8.33
2018-06-12T05:52:49.202Z,4.70
2018-06-12T05:55:21.231Z,6.07
2018-06-12T05:57:53.274Z,5.53
2018-06-12T06:00:25.311Z,5.57
2018-06-12T06:02:57.302Z,5.10
2018-06-12T06:05:29.318Z,7.13
2018-06-12T06:08:01.380Z,6.50
2018-06-12T06:10:33.999Z,5.63
2018-06-12T06:13:05.976Z,5.43
2018-06-12T06:15:37.987Z,6.37
2018-06-12T06:18:10.010Z,6.17
2018-06-12T06:20:42.065Z,4.90
2018-06-12T06:23:14.397Z,5.37
2018-06-12T06:25:46.462Z,4.97
2018-06-12T06:28:18.560Z,5.33
2018-06-12T06:30:50.568Z,5.40
2018-06-12T06:33:22.595Z,7.27
2018-06-12T06:35:54.633Z,4.60
2018-06-12T06:38:26.647Z,5.60
2018-06-12T06:40:58.727Z,9.23
2018-06-12T06:43:30.733Z,4.87
2018-06-12T06:46:02.908Z,4.53
2018-06-12T06:48:35.147Z,5.23
2018-06-12T06:51:07.338Z,6.40
2018-06-12T06:53:39.379Z,5.20
2018-06-12T06:56:11.349Z,6.43
2018-06-12T06:58:43.363Z,7.70
2018-06-12T07:01:15.519Z,5.23
2018-06-12T07:03:47.576Z,5.37
2018-06-12T07:06:19.626Z,6.77
2018-06-12T07:08:51.699Z,6.23
2018-06-12T07:11:23.704Z,6.10
2018-06-12T07:13:55.758Z,5.83
2018-06-12T07:16:27.834Z,5.50
2018-06-12T07:18:59.887Z,9.07
2018-06-12T07:21:31.939Z,8.43
2018-06-12T07:24:03.960Z,5.97
2018-06-12T07:26:36.032Z,6.13
2018-06-12T07:29:08.063Z,5.20
2018-06-12T07:31:40.107Z,4.90
2018-06-12T07:34:12.140Z,5.60
2018-06-12T07:36:44.186Z,7.00
2018-06-12T07:39:20.726Z,6.33
2018-06-12T07:41:52.814Z,6.00
2018-06-12T07:44:24.836Z,7.67
2018-06-12T07:46:56.818Z,7.23
2018-06-12T07:49:28.921Z,7.97
2018-06-12T07:52:00.979Z,7.77
2018-06-12T07:54:33.085Z,8.40
2018-06-12T07:57:05.574Z,7.57
2018-06-12T07:59:37.610Z,6.93
2018-06-12T08:02:09.606Z,13.67
2018-06-12T08:04:41.680Z,12.37
2018-06-12T08:07:13.678Z,9.90
2018-06-12T08:09:45.696Z,13.10
2018-06-12T08:12:17.951Z,7.70
2018-06-12T08:14:49.984Z,7.33
2018-06-12T08:17:22.028Z,13.40
2018-06-12T08:19:54.160Z,4.53
2018-06-12T08:22:26.245Z,5.83
2018-06-12T08:24:58.340Z,6.00
2018-06-12T08:27:30.449Z,5.70
2018-06-12T08:30:02.648Z,5.60
2018-06-12T08:32:34.775Z,8.63
2018-06-12T08:35:06.809Z,8.23
2018-06-12T08:37:38.903Z,6.97
2018-06-12T08:40:10.924Z,6.10
2018-06-12T08:42:43.039Z,6.07
2018-06-12T08:45:15.359Z,8.10
2018-06-12T08:47:47.438Z,7.63
2018-06-12T08:50:19.539Z,6.30
2018-06-12T08:52:51.599Z,7.20
2018-06-12T08:55:23.629Z,13.77
2018-06-12T08:57:56.727Z,10.00
2018-06-12T09:00:28.760Z,8.50
2018-06-12T09:03:00.792Z,7.43
2018-06-12T09:05:32.810Z,7.80
2018-06-12T09:08:04.822Z,7.03
2018-06-12T09:10:36.927Z,7.17
2018-06-12T09:13:09.000Z,6.00
2018-06-12T09:15:41.022Z,5.73
2018-06-12T09:18:13.122Z,7.03
2018-06-12T09:20:45.233Z,6.20
2018-06-12T09:23:18.304Z,6.40
2018-06-12T09:25:50.390Z,6.13
2018-06-12T09:28:22.403Z,5.90
2018-06-12T09:30:54.428Z,5.87
2018-06-12T09:33:26.432Z,5.57
2018-06-12T09:36:04.080Z,6.97
2018-06-12T09:38:36.302Z,6.87
2018-06-12T09:41:08.356Z,6.47
2018-06-12T09:43:40.477Z,6.13
2018-06-12T09:46:12.492Z,6.97
2018-06-12T09:48:44.488Z,6.63
2018-06-12T09:51:16.569Z,5.87
2018-06-12T09:53:48.597Z,5.80
2018-06-12T09:56:20.607Z,12.67
2018-06-12T09:58:52.600Z,10.40
2018-06-12T10:01:24.611Z,6.53
2018-06-12T10:03:56.647Z,7.00
2018-06-12T10:06:28.724Z,5.30
2018-06-12T10:09:00.721Z,5.50
2018-06-12T10:11:32.728Z,6.30
2018-06-12T10:14:05.846Z,5.80
2018-06-12T10:16:37.848Z,6.07
2018-06-12T10:19:09.856Z,5.70
2018-06-12T10:21:41.855Z,5.40
2018-06-12T10:24:13.859Z,5.47
2018-06-12T10:26:45.846Z,6.30
2018-06-12T10:29:17.911Z,5.93
2018-06-12T10:31:49.942Z,6.90
2018-06-12T10:34:21.964Z,5.93
2018-06-12T10:36:53.970Z,5.40
2018-06-12T10:39:26.008Z,5.67
2018-06-12T10:41:58.013Z,5.87
2018-06-12T10:44:30.128Z,6.20
2018-06-12T10:47:02.115Z,5.70
2018-06-12T10:49:34.102Z,6.90
2018-06-12T10:52:06.158Z,6.60
2018-06-12T10:54:38.302Z,7.80
2018-06-12T10:57:10.295Z,8.57
2018-06-12T10:59:42.335Z,5.97
2018-06-12T11:02:14.362Z,5.60
2018-06-12T11:04:46.431Z,5.13
2018-06-12T11:07:18.487Z,5.60
2018-06-12T11:09:50.501Z,5.67
2018-06-12T11:12:22.656Z,8.03
2018-06-12T11:14:54.666Z,6.70
2018-06-12T11:17:26.707Z,6.83
2018-06-12T11:19:58.743Z,7.20
2018-06-12T11:22:31.788Z,7.93
2018-06-12T11:25:03.812Z,6.67
2018-06-12T11:27:35.849Z,7.80
2018-06-12T11:30:07.937Z,7.27
2018-06-12T11:32:40.007Z,7.63
2018-06-12T11:35:12.127Z,7.30
2018-06-12T11:37:44.243Z,6.73
2018-06-12T11:40:16.380Z,6.60
2018-06-12T11:42:48.487Z,8.10
2018-06-12T11:45:20.566Z,7.17
2018-06-12T11:47:52.589Z,8.90
2018-06-12T11:50:24.594Z,8.67
2018-06-12T11:52:56.609Z,8.00
2018-06-12T11:55:28.621Z,6.70
2018-06-12T11:58:00.866Z,6.63
2018-06-12T12:00:32.872Z,6.70
2018-06-12T12:03:04.883Z,6.77
2018-06-12T12:05:36.994Z,7.00
2018-06-12T12:08:08.986Z,7.77
2018-06-12T12:10:40.977Z,8.20
2018-06-12T12:13:13.009Z,7.10
2018-06-12T12:15:45.017Z,6.50
2018-06-12T12:18:17.138Z,5.67
2018-06-12T12:20:49.301Z,6.50
2018-06-12T12:23:21.356Z,6.23
2018-06-12T12:25:53.372Z,7.40
2018-06-12T12:28:25.368Z,8.20
2018-06-12T12:30:57.416Z,7.57
2018-06-12T12:33:29.779Z,7.90
2018-06-12T12:36:01.803Z,7.23
2018-06-12T12:38:33.829Z,6.70
2018-06-12T12:41:05.929Z,7.00
2018-06-12T12:43:37.996Z,6.77
2018-06-12T12:46:09.981Z,6.00
2018-06-12T12:48:42.008Z,5.93
2018-06-12T12:51:14.085Z,6.47
2018-06-12T12:53:46.164Z,6.40
2018-06-12T12:56:18.235Z,6.07
2018-06-12T12:58:50.247Z,6.13
2018-06-12T13:01:22.299Z,6.40
2018-06-12T13:03:54.377Z,6.73
2018-06-12T13:06:26.579Z,6.50
2018-06-12T13:08:58.578Z,6.10
2018-06-12T13:11:30.612Z,6.90
2018-06-12T13:14:02.757Z,7.63
2018-06-12T13:16:34.735Z,6.53
2018-06-12T13:19:06.771Z,6.17
2018-06-12T13:21:38.866Z,7.40
2018-06-12T13:24:10.948Z,8.80
2018-06-12T13:26:43.078Z,7.83
2018-06-12T13:29:15.023Z,6.83
2018-06-12T13:31:47.068Z,7.83
2018-06-12T13:34:19.094Z,7.20
2018-06-12T13:36:51.189Z,6.63
2018-06-12T13:39:23.210Z,7.97
2018-06-12T13:41:55.276Z,7.47
2018-06-12T13:44:27.397Z,7.87
2018-06-12T13:46:59.424Z,8.03
2018-06-12T13:49:31.424Z,6.63
2018-06-12T13:52:03.448Z,6.70
2018-06-12T13:54:35.443Z,6.07
2018-06-12T13:57:07.473Z,6.13
2018-06-12T13:59:39.504Z,6.40
2018-06-12T14:02:11.519Z,6.00
2018-06-12T14:04:43.490Z,5.77
2018-06-12T14:07:15.775Z,5.60
2018-06-12T14:09:47.823Z,6.50
2018-06-12T14:12:19.870Z,5.23
2018-06-12T14:14:51.864Z,5.30
2018-06-12T14:17:24.544Z,6.37
2018-06-12T14:19:56.550Z,6.47
2018-06-12T14:22:28.612Z,6.20
2018-06-12T14:25:00.631Z,6.10
2018-06-12T14:27:32.664Z,5.53
2018-06-12T14:30:04.686Z,6.07
2018-06-12T14:32:36.691Z,6.70
2018-06-12T14:35:08.674Z,7.00
2018-06-12T14:37:42.755Z,7.80
2018-06-12T14:40:15.726Z,8.53
2018-06-12T14:42:47.771Z,8.40
2018-06-12T14:45:19.914Z,8.70
2018-06-12T14:47:51.931Z,7.20
2018-06-12T14:50:23.978Z,7.90
2018-06-12T14:52:55.966Z,7.53
2018-06-12T14:55:28.234Z,6.83
2018-06-12T14:58:00.287Z,7.03
2018-06-12T15:00:32.333Z,7.37
2018-06-12T15:03:04.362Z,6.50
2018-06-12T15:05:36.348Z,7.03
2018-06-12T15:08:08.340Z,7.33
2018-06-12T15:10:40.387Z,7.80
2018-06-12T15:13:12.486Z,7.20
2018-06-12T15:15:44.476Z,7.33
2018-06-12T15:18:16.467Z,8.40
2018-06-12T15:20:48.488Z,9.10
2018-06-12T15:23:20.513Z,8.70
2018-06-12T15:25:52.495Z,9.33
2018-06-12T15:28:24.493Z,8.60
2018-06-12T15:30:56.483Z,8.63
2018-06-12T15:33:28.682Z,10.57
2018-06-12T15:36:00.901Z,10.50
2018-06-12T15:38:32.911Z,9.67
2018-06-12T15:41:05.908Z,11.87
2018-06-12T15:43:38.056Z,10.43
2018-06-12T15:46:10.073Z,10.20
2018-06-12T15:48:43.109Z,11.03
2018-06-12T15:51:15.164Z,11.53
2018-06-12T15:53:47.263Z,12.83
2018-06-12T15:56:19.405Z,9.93
2018-06-12T15:58:51.958Z,10.27
2018-06-12T16:01:23.946Z,11.53
2018-06-12T16:03:55.968Z,16.00
2018-06-12T16:06:28.222Z,11.90
2018-06-12T16:09:00.271Z,11.27
2018-06-12T16:11:32.326Z,13.50
2018-06-12T16:14:04.390Z,11.70
2018-06-12T16:16:36.402Z,11.60
2018-06-12T16:19:08.410Z,11.17
2018-06-12T16:21:40.452Z,11.43
2018-06-12T16:24:12.466Z,10.70
2018-06-12T16:26:48.423Z,11.33
2018-06-12T16:29:20.475Z,9.87
2018-06-12T16:31:52.483Z,10.13
2018-06-12T16:34:24.502Z,11.27
2018-06-12T16:36:56.570Z,11.90
2018-06-12T16:39:28.606Z,11.10
2018-06-12T16:42:00.639Z,11.73
2018-06-12T16:44:32.655Z,12.77
2018-06-12T16:47:04.690Z,12.30
2018-06-12T16:49:36.738Z,12.20
2018-06-12T16:52:08.816Z,12.67
2018-06-12T16:54:40.846Z,12.70
2018-06-12T16:57:13.017Z,12.87
2018-06-12T16:59:45.063Z,14.00
2018-06-12T17:02:17.130Z,13.03
2018-06-12T17:04:50.053Z,14.20
2018-06-12T17:07:22.097Z,13.43
2018-06-12T17:10:57.455Z,13.57
2018-06-12T17:13:30.551Z,13.73
2018-06-12T17:16:03.004Z,14.90
2018-06-12T17:18:35.123Z,14.30
2018-06-12T17:21:07.155Z,13.33
2018-06-12T17:23:39.234Z,13.40
2018-06-12T17:26:11.241Z,13.90
2018-06-12T17:28:42.769Z,12.73
2018-06-12T17:31:14.826Z,13.60
2018-06-12T17:33:46.876Z,12.73
2018-06-12T17:36:18.906Z,12.87
2018-06-12T17:38:51.000Z,12.30
2018-06-12T17:41:23.046Z,12.37
2018-06-12T17:43:55.075Z,12.43
2018-06-12T17:46:27.100Z,11.43
2018-06-12T17:48:59.350Z,11.53
2018-06-12T17:51:31.390Z,12.10
2018-06-12T17:54:03.507Z,13.53
2018-06-12T17:56:35.494Z,12.50
2018-06-12T17:59:07.491Z,14.27
2018-06-12T18:01:39.552Z,14.27
2018-06-12T18:04:11.678Z,11.87
2018-06-12T18:06:43.695Z,14.13
2018-06-12T18:09:15.697Z,12.03
2018-06-12T18:11:47.711Z,13.00
2018-06-12T18:14:20.931Z,14.13
2018-06-12T18:16:53.206Z,13.50
2018-06-12T18:19:25.235Z,13.73
2018-06-12T18:21:57.296Z,12.70
2018-06-12T18:25:32.562Z,11.43
2018-06-12T18:28:04.603Z,12.70
2018-06-12T18:30:36.684Z,13.97
2018-06-12T18:33:08.709Z,13.90
2018-06-12T18:35:40.886Z,14.47
2018-06-12T18:38:12.947Z,14.20
2018-06-12T18:40:44.974Z,13.83
2018-06-12T18:43:17.025Z,14.00
2018-06-12T18:45:49.067Z,12.73
2018-06-12T18:48:21.120Z,14.17
2018-06-12T18:50:53.170Z,12.33
2018-06-12T18:53:25.162Z,14.13
2018-06-12T18:55:57.223Z,13.67
2018-06-12T18:58:29.219Z,14.00
2018-06-12T19:01:01.251Z,15.40
2018-06-12T19:03:34.197Z,16.00
2018-06-12T19:06:06.242Z,14.63
2018-06-12T19:08:38.250Z,15.60
2018-06-12T19:11:10.301Z,15.17
2018-06-12T19:13:42.351Z,15.60
2018-06-12T19:16:14.371Z,16.80
2018-06-12T19:18:46.417Z,17.10
2018-06-12T19:21:18.442Z,16.03
2018-06-12T19:23:50.430Z,17.83
2018-06-12T19:26:22.418Z,17.23
2018-06-12T19:28:54.403Z,15.70
2018-06-12T19:31:26.420Z,17.20
2018-06-12T19:33:58.465Z,17.57
2018-06-12T19:36:30.480Z,17.90
2018-06-12T19:39:02.890Z,15.20
2018-06-12T19:41:36.686Z,16.20
2018-06-12T19:44:08.782Z,17.50
2018-06-12T19:46:40.891Z,17.17
2018-06-12T19:49:14.012Z,17.60
2018-06-12T19:51:46.008Z,18.20
2018-06-12T19:54:18.116Z,16.53
2018-06-12T19:56:51.204Z,16.60
2018-06-12T19:59:23.423Z,17.83
2018-06-12T20:01:57.522Z,17.97
2018-06-12T20:04:29.660Z,18.33
2018-06-12T20:07:01.733Z,17.77
2018-06-12T20:09:33.759Z,19.10
2018-06-12T20:12:05.843Z,17.17
2018-06-12T20:14:37.860Z,18.93
2018-06-12T20:17:09.972Z,16.93
2018-06-12T20:19:42.149Z,17.60
2018-06-12T20:22:14.363Z,17.93
2018-06-12T20:24:46.427Z,18.97
2018-06-12T20:27:18.450Z,17.60
2018-06-12T20:29:50.566Z,18.87
2018-06-12T20:32:22.722Z,19.63
2018-06-12T20:34:54.850Z,16.90
2018-06-12T20:37:26.939Z,16.67
2018-06-12T20:39:59.038Z,17.10
2018-06-12T20:42:32.216Z,17.70
2018-06-12T20:45:04.353Z,16.40
2018-06-12T20:47:36.452Z,15.47
2018-06-12T20:50:08.469Z,16.37
2018-06-12T20:52:40.555Z,18.67
2018-06-12T20:55:12.559Z,15.00
2018-06-12T20:57:44.637Z,15.53
2018-06-12T21:00:16.727Z,16.40
2018-06-12T21:02:49.444Z,16.53
2018-06-12T21:05:21.509Z,15.43
2018-06-12T21:07:54.367Z,15.87
2018-06-12T21:10:26.394Z,15.00
2018-06-12T21:12:58.856Z,17.00
2018-06-12T21:15:30.926Z,17.70
2018-06-12T21:18:03.052Z,17.23
2018-06-12T21:20:35.446Z,16.87
2018-06-12T21:23:07.684Z,17.43
2018-06-12T21:25:39.712Z,17.03
2018-06-12T21:28:11.918Z,15.37
2018-06-12T21:30:43.920Z,15.87
2018-06-12T21:33:16.192Z,17.70
2018-06-12T21:35:48.395Z,16.00
2018-06-12T21:38:20.950Z,17.20
2018-06-12T21:40:54.093Z,18.33
2018-06-12T21:43:26.098Z,16.60
2018-06-12T21:45:58.157Z,17.63
2018-06-12T21:48:30.406Z,18.33
2018-06-12T21:51:02.803Z,16.37
2018-06-12T21:53:34.962Z,17.23
2018-06-12T21:56:06.965Z,16.57
2018-06-12T21:58:39.017Z,8.43
2018-06-12T22:01:11.148Z,10.20
2018-06-12T22:03:43.315Z,9.20
2018-06-12T22:06:15.537Z,10.77
2018-06-12T22:08:47.738Z,12.27
2018-06-12T22:11:20.764Z,13.03
2018-06-12T22:13:52.807Z,12.80
2018-06-12T22:16:24.837Z,16.43
2018-06-12T22:18:56.841Z,17.63
2018-06-12T22:21:28.971Z,20.67
2018-06-12T22:24:00.946Z,21.03
2018-06-12T22:26:32.952Z,21.10
2018-06-12T22:29:05.040Z,20.33
2018-06-12T22:31:37.133Z,21.37
2018-06-12T22:34:09.186Z,20.10
2018-06-12T22:36:41.426Z,21.77
2018-06-12T22:39:13.613Z,20.90
2018-06-12T22:41:45.594Z,22.83
2018-06-12T22:44:17.596Z,20.70
2018-06-12T22:46:49.688Z,22.70
2018-06-12T22:49:21.865Z,23.33
2018-06-12T22:51:53.930Z,20.93
2018-06-12T22:54:25.969Z,22.30
2018-06-12T22:56:58.119Z,22.20
2018-06-12T22:59:30.175Z,22.77
2018-06-12T23:02:02.341Z,22.93
2018-06-12T23:04:34.347Z,23.97
2018-06-12T23:07:06.542Z,22.63
2018-06-12T23:09:38.682Z,22.47
2018-06-12T23:12:10.810Z,25.03
2018-06-12T23:14:42.838Z,24.20
2018-06-12T23:17:15.065Z,24.47
2018-06-12T23:19:58.575Z,24.00
2018-06-12T23:22:30.708Z,25.73
2018-06-12T23:25:02.865Z,24.67
2018-06-12T23:27:34.959Z,23.70
2018-06-12T23:30:07.107Z,23.90
2018-06-12T23:32:39.207Z,23.23
2018-06-12T23:35:11.288Z,22.93
2018-06-12T23:37:43.368Z,25.07
2018-06-12T23:40:16.453Z,24.43
2018-06-12T23:42:48.440Z,27.00
2018-06-12T23:45:20.455Z,24.07
2018-06-12T23:47:52.445Z,27.10
2018-06-12T23:50:24.452Z,26.70
2018-06-12T23:52:56.447Z,25.70
2018-06-12T23:55:28.494Z,25.60
2018-06-12T23:58:00.483Z,25.80
